Portada
METAR-TAF:

METAR-TAF

Aeropuertos :

Vitória, Espírito Santo, Brasil

Aeropuerto de Eurico de Aguiar Salles

latitud: 20-16S, longitud: 040-17W, altitud: 4 m

Observación

El informe se hizo hace 57 minutos, a las 04:00 UTC
Viento 4 kt del norte-noroeste
Temperatura 24°C
Humedad 94%
Presión 1016 hPa
Visibilidad 10 km o más
Nubes dispersas a una altura de 2000 ft

METAR: SBVT 230400Z 34004KT 9999 SCT020 24/23 Q1016

Hora: 01:57 (04:57 UTC)

Pronóstico

El informe se hizo hace 7 horas y 57 minutos, a las 21:00 UTC
Pronóstico válido del 23 a las 00 UTC al 23 a las 24 UTC
Viento 3 kt del norte-noroeste
Visibilidad 10 km o más
Nubes dispersas a una altura de 2000 ft
Evolucionando progresivamente
del 23 a las 11 UTC al 23 a las 13 UTC
Viento 9 kt del sur-sureste

TAF: SBVT 222100Z 2300/2324 33003KT 9999 SCT020 TN24/2309Z TX31/2316Z BECMG 2311/2313 15009KT RMK PDG

Observaciones y pronósticos meteorológicos de más de 4000 aeropuertos (mensajes METAR y TAF).

Los puntos amarillos y rojos representan las estaciones disponibles.

Ponga el ratón en el punto deseado para ver el nombre de la estación.

Haga clic para ver las observaciones y los pronósticos meteorológicos.

Para cambiar el mapa : haga clic en los botones verdes con una cruz de color negro para hacer un zoom, en el botón verde con un guión para alejar o en las flechas verdes para mapas adyacentes.


METAR-TAF: